sensor_id;sensor_type;location;lat;lon;timestamp;temperature;humidity
7030;DHT22;3556;53.500;10.176;2023-10-08T00:00:13;10.80;99.90
7030;DHT22;3556;53.500;10.176;2023-10-08T00:02:57;10.80;99.90
7030;DHT22;3556;53.500;10.176;2023-10-08T00:05:23;10.80;99.90
7030;DHT22;3556;53.500;10.176;2023-10-08T00:07:49;10.80;99.90
7030;DHT22;3556;53.500;10.176;2023-10-08T00:10:16;10.80;99.90
7030;DHT22;3556;53.500;10.176;2023-10-08T00:12:41;10.80;99.90
7030;DHT22;3556;53.500;10.176;2023-10-08T00:15:07;10.80;99.90
7030;DHT22;3556;53.500;10.176;2023-10-08T00:17:35;10.80;99.90
7030;DHT22;3556;53.500;10.176;2023-10-08T00:20:01;10.80;99.90
7030;DHT22;3556;53.500;10.176;2023-10-08T00:22:28;10.80;99.90
7030;DHT22;3556;53.500;10.176;2023-10-08T00:25:01;10.80;99.90
7030;DHT22;3556;53.500;10.176;2023-10-08T00:27:26;10.80;99.90
7030;DHT22;3556;53.500;10.176;2023-10-08T00:29:52;10.80;99.90
7030;DHT22;3556;53.500;10.176;2023-10-08T00:32:18;10.80;99.90
7030;DHT22;3556;53.500;10.176;2023-10-08T00:34:44;10.80;99.90
7030;DHT22;3556;53.500;10.176;2023-10-08T00:37:10;10.80;99.90
7030;DHT22;3556;53.500;10.176;2023-10-08T00:39:38;10.80;99.90
7030;DHT22;3556;53.500;10.176;2023-10-08T00:42:06;10.70;99.90
7030;DHT22;3556;53.500;10.176;2023-10-08T00:44:34;10.70;99.90
7030;DHT22;3556;53.500;10.176;2023-10-08T00:47:04;10.70;99.90
7030;DHT22;3556;53.500;10.176;2023-10-08T00:49:32;10.70;99.90
7030;DHT22;3556;53.500;10.176;2023-10-08T00:52:14;10.80;99.90
7030;DHT22;3556;53.500;10.176;2023-10-08T00:54:42;10.70;99.90
7030;DHT22;3556;53.500;10.176;2023-10-08T00:57:24;10.70;99.90
7030;DHT22;3556;53.500;10.176;2023-10-08T00:59:51;10.80;99.90
7030;DHT22;3556;53.500;10.176;2023-10-08T01:02:21;10.70;99.90
7030;DHT22;3556;53.500;10.176;2023-10-08T01:04:53;10.70;99.90
7030;DHT22;3556;53.500;10.176;2023-10-08T01:07:20;10.70;99.90
7030;DHT22;3556;53.500;10.176;2023-10-08T01:09:46;10.70;99.90
7030;DHT22;3556;53.500;10.176;2023-10-08T01:12:25;10.70;99.90
7030;DHT22;3556;53.500;10.176;2023-10-08T01:14:53;10.70;99.90
7030;DHT22;3556;53.500;10.176;2023-10-08T01:17:23;10.70;99.90
7030;DHT22;3556;53.500;10.176;2023-10-08T01:19:53;10.70;99.90
7030;DHT22;3556;53.500;10.176;2023-10-08T01:22:33;10.70;99.90
7030;DHT22;3556;53.500;10.176;2023-10-08T01:24:59;10.70;99.90
7030;DHT22;3556;53.500;10.176;2023-10-08T01:27:30;10.70;99.90
7030;DHT22;3556;53.500;10.176;2023-10-08T01:30:00;10.70;99.90
7030;DHT22;3556;53.500;10.176;2023-10-08T01:32:43;10.70;99.90
7030;DHT22;3556;53.500;10.176;2023-10-08T01:35:09;10.70;99.90
7030;DHT22;3556;53.500;10.176;2023-10-08T01:37:49;10.70;99.90
7030;DHT22;3556;53.500;10.176;2023-10-08T01:40:19;10.70;99.90
7030;DHT22;3556;53.500;10.176;2023-10-08T01:42:45;10.70;99.90
7030;DHT22;3556;53.500;10.176;2023-10-08T01:45:13;10.70;99.90
7030;DHT22;3556;53.500;10.176;2023-10-08T01:47:45;10.60;99.90
7030;DHT22;3556;53.500;10.176;2023-10-08T01:50:11;10.70;99.90
7030;DHT22;3556;53.500;10.176;2023-10-08T01:52:54;10.70;99.90
7030;DHT22;3556;53.500;10.176;2023-10-08T01:55:20;10.70;99.90
7030;DHT22;3556;53.500;10.176;2023-10-08T01:57:48;10.60;99.90
7030;DHT22;3556;53.500;10.176;2023-10-08T02:00:15;10.60;99.90
7030;DHT22;3556;53.500;10.176;2023-10-08T02:02:52;10.60;99.90
7030;DHT22;3556;53.500;10.176;2023-10-08T02:05:19;10.60;99.90
7030;DHT22;3556;53.500;10.176;2023-10-08T02:07:46;10.60;99.90
7030;DHT22;3556;53.500;10.176;2023-10-08T02:10:12;10.60;99.90
7030;DHT22;3556;53.500;10.176;2023-10-08T02:12:42;10.60;99.90
7030;DHT22;3556;53.500;10.176;2023-10-08T02:15:08;10.60;99.90
7030;DHT22;3556;53.500;10.176;2023-10-08T02:17:37;10.60;99.90
7030;DHT22;3556;53.500;10.176;2023-10-08T02:20:03;10.60;99.90
7030;DHT22;3556;53.500;10.176;2023-10-08T02:22:34;10.60;99.90
7030;DHT22;3556;53.500;10.176;2023-10-08T02:24:59;10.60;99.90
7030;DHT22;3556;53.500;10.176;2023-10-08T02:27:29;10.60;99.90
7030;DHT22;3556;53.500;10.176;2023-10-08T02:29:54;10.60;99.90
7030;DHT22;3556;53.500;10.176;2023-10-08T02:32:21;10.60;99.90
7030;DHT22;3556;53.500;10.176;2023-10-08T02:34:49;10.60;99.90
7030;DHT22;3556;53.500;10.176;2023-10-08T02:37:16;10.50;99.90
7030;DHT22;3556;53.500;10.176;2023-10-08T02:39:42;10.50;99.90
7030;DHT22;3556;53.500;10.176;2023-10-08T02:42:08;10.50;99.90
7030;DHT22;3556;53.500;10.176;2023-10-08T02:44:36;10.50;99.90
7030;DHT22;3556;53.500;10.176;2023-10-08T02:47:10;10.60;99.90
7030;DHT22;3556;53.500;10.176;2023-10-08T02:49:42;10.50;99.90
7030;DHT22;3556;53.500;10.176;2023-10-08T02:52:08;10.50;99.90
7030;DHT22;3556;53.500;10.176;2023-10-08T02:54:38;10.50;99.90
7030;DHT22;3556;53.500;10.176;2023-10-08T02:57:04;10.50;99.90
7030;DHT22;3556;53.500;10.176;2023-10-08T02:59:35;10.50;99.90
7030;DHT22;3556;53.500;10.176;2023-10-08T03:02:08;10.50;99.90
7030;DHT22;3556;53.500;10.176;2023-10-08T03:04:45;10.50;99.90
7030;DHT22;3556;53.500;10.176;2023-10-08T03:07:17;10.50;99.90
7030;DHT22;3556;53.500;10.176;2023-10-08T03:09:58;10.50;99.90
7030;DHT22;3556;53.500;10.176;2023-10-08T03:12:43;10.50;99.90
7030;DHT22;3556;53.500;10.176;2023-10-08T03:15:09;10.40;99.90
7030;DHT22;3556;53.500;10.176;2023-10-08T03:17:54;10.40;99.90
7030;DHT22;3556;53.500;10.176;2023-10-08T03:20:19;10.40;99.90
7030;DHT22;3556;53.500;10.176;2023-10-08T03:23:15;10.40;99.90
7030;DHT22;3556;53.500;10.176;2023-10-08T03:26:01;10.40;99.90
7030;DHT22;3556;53.500;10.176;2023-10-08T03:28:37;10.30;99.90
7030;DHT22;3556;53.500;10.176;2023-10-08T03:31:03;10.30;99.90
7030;DHT22;3556;53.500;10.176;2023-10-08T03:33:35;10.30;99.90
7030;DHT22;3556;53.500;10.176;2023-10-08T03:36:03;10.40;99.90
7030;DHT22;3556;53.500;10.176;2023-10-08T03:38:40;10.30;99.90
7030;DHT22;3556;53.500;10.176;2023-10-08T03:41:10;10.30;99.90
7030;DHT22;3556;53.500;10.176;2023-10-08T03:43:45;10.30;99.90
7030;DHT22;3556;53.500;10.176;2023-10-08T03:46:32;10.30;99.90
7030;DHT22;3556;53.500;10.176;2023-10-08T03:49:05;10.30;99.90
7030;DHT22;3556;53.500;10.176;2023-10-08T03:51:40;10.30;99.90
7030;DHT22;3556;53.500;10.176;2023-10-08T03:54:07;10.20;99.90
7030;DHT22;3556;53.500;10.176;2023-10-08T03:56:42;10.20;99.90
7030;DHT22;3556;53.500;10.176;2023-10-08T03:59:14;10.20;99.90
7030;DHT22;3556;53.500;10.176;2023-10-08T04:01:46;10.20;99.90
7030;DHT22;3556;53.500;10.176;2023-10-08T04:04:14;10.10;99.90
7030;DHT22;3556;53.500;10.176;2023-10-08T04:06:41;10.10;99.90
7030;DHT22;3556;53.500;10.176;2023-10-08T04:09:15;10.10;99.90
7030;DHT22;3556;53.500;10.176;2023-10-08T04:11:50;10.10;99.90
7030;DHT22;3556;53.500;10.176;2023-10-08T04:14:16;10.10;99.90
7030;DHT22;3556;53.500;10.176;2023-10-08T04:16:42;10.00;99.90
7030;DHT22;3556;53.500;10.176;2023-10-08T04:19:09;10.00;99.90
7030;DHT22;3556;53.500;10.176;2023-10-08T04:21:35;10.00;99.90
7030;DHT22;3556;53.500;10.176;2023-10-08T04:24:01;10.00;99.90
7030;DHT22;3556;53.500;10.176;2023-10-08T04:26:31;10.00;99.90
7030;DHT22;3556;53.500;10.176;2023-10-08T04:28:58;10.00;99.90
7030;DHT22;3556;53.500;10.176;2023-10-08T04:31:31;10.00;99.90
7030;DHT22;3556;53.500;10.176;2023-10-08T04:34:09;10.00;99.90
7030;DHT22;3556;53.500;10.176;2023-10-08T04:36:44;10.00;99.90
7030;DHT22;3556;53.500;10.176;2023-10-08T04:39:19;10.00;99.90
7030;DHT22;3556;53.500;10.176;2023-10-08T04:41:48;9.90;99.90
7030;DHT22;3556;53.500;10.176;2023-10-08T04:44:19;9.90;99.90
7030;DHT22;3556;53.500;10.176;2023-10-08T04:46:47;9.90;99.90
7030;DHT22;3556;53.500;10.176;2023-10-08T04:49:17;9.90;99.90
7030;DHT22;3556;53.500;10.176;2023-10-08T04:52:03;9.90;99.90
7030;DHT22;3556;53.500;10.176;2023-10-08T04:54:40;9.80;99.90
7030;DHT22;3556;53.500;10.176;2023-10-08T04:57:07;9.80;99.90
7030;DHT22;3556;53.500;10.176;2023-10-08T04:59:41;9.80;99.90
7030;DHT22;3556;53.500;10.176;2023-10-08T05:02:07;9.80;99.90
7030;DHT22;3556;53.500;10.176;2023-10-08T05:04:52;9.80;99.90
7030;DHT22;3556;53.500;10.176;2023-10-08T05:07:18;9.80;99.90
7030;DHT22;3556;53.500;10.176;2023-10-08T05:09:48;9.80;99.90
7030;DHT22;3556;53.500;10.176;2023-10-08T05:12:28;9.70;99.90
7030;DHT22;3556;53.500;10.176;2023-10-08T05:15:04;9.70;99.90
7030;DHT22;3556;53.500;10.176;2023-10-08T05:17:42;9.70;99.90
7030;DHT22;3556;53.500;10.176;2023-10-08T05:20:18;9.70;99.90
7030;DHT22;3556;53.500;10.176;2023-10-08T05:23:13;9.70;99.90
7030;DHT22;3556;53.500;10.176;2023-10-08T05:25:48;9.70;99.90
7030;DHT22;3556;53.500;10.176;2023-10-08T05:28:36;9.60;99.90
7030;DHT22;3556;53.500;10.176;2023-10-08T05:31:12;9.60;99.90
7030;DHT22;3556;53.500;10.176;2023-10-08T05:33:41;9.60;99.90
7030;DHT22;3556;53.500;10.176;2023-10-08T05:36:41;9.60;99.90
7030;DHT22;3556;53.500;10.176;2023-10-08T05:39:36;9.60;99.90
7030;DHT22;3556;53.500;10.176;2023-10-08T05:42:04;9.60;99.90
7030;DHT22;3556;53.500;10.176;2023-10-08T05:44:44;9.60;99.90
7030;DHT22;3556;53.500;10.176;2023-10-08T05:47:32;9.60;99.90
7030;DHT22;3556;53.500;10.176;2023-10-08T05:49:59;9.60;99.90
7030;DHT22;3556;53.500;10.176;2023-10-08T05:52:44;9.50;99.90
7030;DHT22;3556;53.500;10.176;2023-10-08T05:55:31;9.50;99.90
7030;DHT22;3556;53.500;10.176;2023-10-08T05:58:03;9.50;99.90
7030;DHT22;3556;53.500;10.176;2023-10-08T06:00:43;9.50;99.90
7030;DHT22;3556;53.500;10.176;2023-10-08T06:03:31;9.50;99.90
7030;DHT22;3556;53.500;10.176;2023-10-08T06:06:08;9.40;99.90
7030;DHT22;3556;53.500;10.176;2023-10-08T06:08:37;9.40;99.90
7030;DHT22;3556;53.500;10.176;2023-10-08T06:11:18;9.40;99.90
7030;DHT22;3556;53.500;10.176;2023-10-08T06:14:07;9.40;99.90
7030;DHT22;3556;53.500;10.176;2023-10-08T06:16:43;9.40;99.90
7030;DHT22;3556;53.500;10.176;2023-10-08T06:19:13;9.30;99.90
7030;DHT22;3556;53.500;10.176;2023-10-08T06:21:41;9.30;99.90
7030;DHT22;3556;53.500;10.176;2023-10-08T06:24:07;9.30;99.90
7030;DHT22;3556;53.500;10.176;2023-10-08T06:26:38;9.30;99.90
7030;DHT22;3556;53.500;10.176;2023-10-08T06:29:14;9.30;99.90
7030;DHT22;3556;53.500;10.176;2023-10-08T06:31:57;9.30;99.90
7030;DHT22;3556;53.500;10.176;2023-10-08T06:34:23;9.30;99.90
7030;DHT22;3556;53.500;10.176;2023-10-08T06:36:53;9.30;99.90
7030;DHT22;3556;53.500;10.176;2023-10-08T06:39:23;9.30;99.90
7030;DHT22;3556;53.500;10.176;2023-10-08T06:41:59;9.30;99.90
7030;DHT22;3556;53.500;10.176;2023-10-08T06:44:25;9.30;99.90
7030;DHT22;3556;53.500;10.176;2023-10-08T06:46:52;9.30;99.90
7030;DHT22;3556;53.500;10.176;2023-10-08T06:49:22;9.30;99.90
7030;DHT22;3556;53.500;10.176;2023-10-08T06:51:50;9.40;99.90
7030;DHT22;3556;53.500;10.176;2023-10-08T06:54:17;9.40;99.90
7030;DHT22;3556;53.500;10.176;2023-10-08T06:56:44;9.50;99.90
7030;DHT22;3556;53.500;10.176;2023-10-08T06:59:15;9.50;99.90
7030;DHT22;3556;53.500;10.176;2023-10-08T07:01:42;9.60;99.90
7030;DHT22;3556;53.500;10.176;2023-10-08T07:04:11;9.60;99.90
7030;DHT22;3556;53.500;10.176;2023-10-08T07:06:43;9.70;99.90
7030;DHT22;3556;53.500;10.176;2023-10-08T07:09:12;9.70;99.90
7030;DHT22;3556;53.500;10.176;2023-10-08T07:11:55;9.80;99.90
7030;DHT22;3556;53.500;10.176;2023-10-08T07:14:26;9.90;99.90
7030;DHT22;3556;53.500;10.176;2023-10-08T07:16:55;9.90;99.90
7030;DHT22;3556;53.500;10.176;2023-10-08T07:19:24;10.00;99.90
7030;DHT22;3556;53.500;10.176;2023-10-08T07:21:59;10.00;99.90
7030;DHT22;3556;53.500;10.176;2023-10-08T07:24:29;10.10;99.90
7030;DHT22;3556;53.500;10.176;2023-10-08T07:26:56;10.20;99.90
7030;DHT22;3556;53.500;10.176;2023-10-08T07:29:22;10.20;99.90
7030;DHT22;3556;53.500;10.176;2023-10-08T07:31:47;10.20;99.90
7030;DHT22;3556;53.500;10.176;2023-10-08T07:34:15;10.30;99.90
7030;DHT22;3556;53.500;10.176;2023-10-08T07:36:46;10.40;99.90
7030;DHT22;3556;53.500;10.176;2023-10-08T07:39:16;10.40;99.90
7030;DHT22;3556;53.500;10.176;2023-10-08T07:42:08;10.40;99.90
7030;DHT22;3556;53.500;10.176;2023-10-08T07:44:34;10.40;99.90
7030;DHT22;3556;53.500;10.176;2023-10-08T07:47:04;10.50;99.90
7030;DHT22;3556;53.500;10.176;2023-10-08T07:49:31;10.50;99.90
7030;DHT22;3556;53.500;10.176;2023-10-08T07:51:58;10.60;99.90
7030;DHT22;3556;53.500;10.176;2023-10-08T07:54:27;10.70;99.90
7030;DHT22;3556;53.500;10.176;2023-10-08T07:56:57;10.70;99.90
7030;DHT22;3556;53.500;10.176;2023-10-08T07:59:34;10.80;99.90
7030;DHT22;3556;53.500;10.176;2023-10-08T08:02:06;10.80;99.90
7030;DHT22;3556;53.500;10.176;2023-10-08T08:04:36;10.90;99.90
7030;DHT22;3556;53.500;10.176;2023-10-08T08:07:02;10.90;99.90
7030;DHT22;3556;53.500;10.176;2023-10-08T08:09:30;11.00;99.90
7030;DHT22;3556;53.500;10.176;2023-10-08T08:11:55;11.10;99.90
7030;DHT22;3556;53.500;10.176;2023-10-08T08:14:23;11.10;99.90
7030;DHT22;3556;53.500;10.176;2023-10-08T08:16:51;11.20;99.90
7030;DHT22;3556;53.500;10.176;2023-10-08T08:19:17;11.20;99.90
7030;DHT22;3556;53.500;10.176;2023-10-08T08:21:49;11.20;99.90
7030;DHT22;3556;53.500;10.176;2023-10-08T08:24:15;11.30;99.90
7030;DHT22;3556;53.500;10.176;2023-10-08T08:26:55;11.30;99.90
7030;DHT22;3556;53.500;10.176;2023-10-08T08:29:33;11.30;99.90
7030;DHT22;3556;53.500;10.176;2023-10-08T08:32:10;11.30;99.90
7030;DHT22;3556;53.500;10.176;2023-10-08T08:34:43;11.40;99.90
7030;DHT22;3556;53.500;10.176;2023-10-08T08:37:12;11.40;99.90
7030;DHT22;3556;53.500;10.176;2023-10-08T08:39:39;11.50;99.90
7030;DHT22;3556;53.500;10.176;2023-10-08T08:42:07;11.50;99.90
7030;DHT22;3556;53.500;10.176;2023-10-08T08:44:37;11.60;99.90
7030;DHT22;3556;53.500;10.176;2023-10-08T08:47:11;11.60;99.90
7030;DHT22;3556;53.500;10.176;2023-10-08T08:49:45;11.70;99.90
7030;DHT22;3556;53.500;10.176;2023-10-08T08:52:12;11.80;99.90
7030;DHT22;3556;53.500;10.176;2023-10-08T08:54:39;11.80;99.90
7030;DHT22;3556;53.500;10.176;2023-10-08T08:57:05;11.90;99.90
7030;DHT22;3556;53.500;10.176;2023-10-08T08:59:38;11.90;99.90
7030;DHT22;3556;53.500;10.176;2023-10-08T09:02:06;12.00;99.90
7030;DHT22;3556;53.500;10.176;2023-10-08T09:04:33;12.10;99.90
7030;DHT22;3556;53.500;10.176;2023-10-08T09:07:02;12.20;99.90
7030;DHT22;3556;53.500;10.176;2023-10-08T09:09:33;12.30;99.90
7030;DHT22;3556;53.500;10.176;2023-10-08T09:12:00;12.30;99.90
7030;DHT22;3556;53.500;10.176;2023-10-08T09:14:27;12.40;99.90
7030;DHT22;3556;53.500;10.176;2023-10-08T09:16:55;12.50;99.90
7030;DHT22;3556;53.500;10.176;2023-10-08T09:19:21;12.60;99.90
7030;DHT22;3556;53.500;10.176;2023-10-08T09:22:02;12.70;99.90
7030;DHT22;3556;53.500;10.176;2023-10-08T09:24:32;12.80;99.90
7030;DHT22;3556;53.500;10.176;2023-10-08T09:26:59;12.80;99.90
7030;DHT22;3556;53.500;10.176;2023-10-08T09:29:25;13.00;99.90
7030;DHT22;3556;53.500;10.176;2023-10-08T09:31:59;13.10;99.90
7030;DHT22;3556;53.500;10.176;2023-10-08T09:34:29;13.20;99.90
7030;DHT22;3556;53.500;10.176;2023-10-08T09:36:56;13.30;99.90
7030;DHT22;3556;53.500;10.176;2023-10-08T09:39:23;13.40;99.90
7030;DHT22;3556;53.500;10.176;2023-10-08T09:41:54;13.60;99.90
7030;DHT22;3556;53.500;10.176;2023-10-08T09:44:22;13.60;99.90
7030;DHT22;3556;53.500;10.176;2023-10-08T09:47:07;13.70;99.90
7030;DHT22;3556;53.500;10.176;2023-10-08T09:49:40;13.70;99.90
7030;DHT22;3556;53.500;10.176;2023-10-08T09:52:09;13.80;99.90
7030;DHT22;3556;53.500;10.176;2023-10-08T09:54:59;13.90;99.90
7030;DHT22;3556;53.500;10.176;2023-10-08T09:57:25;13.90;99.90
7030;DHT22;3556;53.500;10.176;2023-10-08T09:59:52;13.90;99.90
7030;DHT22;3556;53.500;10.176;2023-10-08T10:02:19;14.00;99.90
7030;DHT22;3556;53.500;10.176;2023-10-08T10:04:50;14.10;99.90
7030;DHT22;3556;53.500;10.176;2023-10-08T10:07:16;14.30;99.90
7030;DHT22;3556;53.500;10.176;2023-10-08T10:09:46;14.40;99.90
7030;DHT22;3556;53.500;10.176;2023-10-08T10:12:15;14.60;99.90
7030;DHT22;3556;53.500;10.176;2023-10-08T10:14:45;14.80;99.90
7030;DHT22;3556;53.500;10.176;2023-10-08T10:17:41;14.90;99.90
7030;DHT22;3556;53.500;10.176;2023-10-08T10:20:06;14.90;99.90
7030;DHT22;3556;53.500;10.176;2023-10-08T10:22:38;14.90;99.90
7030;DHT22;3556;53.500;10.176;2023-10-08T10:25:05;14.90;99.90
7030;DHT22;3556;53.500;10.176;2023-10-08T10:30:20;14.70;99.90
7030;DHT22;3556;53.500;10.176;2023-10-08T10:32:46;14.60;99.90
7030;DHT22;3556;53.500;10.176;2023-10-08T10:35:14;14.60;99.90
7030;DHT22;3556;53.500;10.176;2023-10-08T10:37:43;14.40;99.90
7030;DHT22;3556;53.500;10.176;2023-10-08T10:40:22;14.40;99.90
7030;DHT22;3556;53.500;10.176;2023-10-08T10:42:58;14.40;99.90
7030;DHT22;3556;53.500;10.176;2023-10-08T10:45:28;14.50;99.90
7030;DHT22;3556;53.500;10.176;2023-10-08T10:48:09;14.70;99.90
7030;DHT22;3556;53.500;10.176;2023-10-08T10:50:48;15.00;99.90
7030;DHT22;3556;53.500;10.176;2023-10-08T10:53:37;15.20;99.90
7030;DHT22;3556;53.500;10.176;2023-10-08T10:56:23;15.50;99.90
7030;DHT22;3556;53.500;10.176;2023-10-08T10:58:59;15.70;99.90
7030;DHT22;3556;53.500;10.176;2023-10-08T11:01:29;15.80;99.90
7030;DHT22;3556;53.500;10.176;2023-10-08T11:04:10;15.90;99.90
7030;DHT22;3556;53.500;10.176;2023-10-08T11:06:45;15.90;99.90
7030;DHT22;3556;53.500;10.176;2023-10-08T11:09:11;16.00;99.90
7030;DHT22;3556;53.500;10.176;2023-10-08T11:11:42;16.00;99.90
7030;DHT22;3556;53.500;10.176;2023-10-08T11:14:12;16.20;99.90
7030;DHT22;3556;53.500;10.176;2023-10-08T11:16:44;16.40;99.90
7030;DHT22;3556;53.500;10.176;2023-10-08T11:19:11;16.70;99.90
7030;DHT22;3556;53.500;10.176;2023-10-08T11:21:51;16.90;99.90
7030;DHT22;3556;53.500;10.176;2023-10-08T11:24:32;17.20;99.90
7030;DHT22;3556;53.500;10.176;2023-10-08T11:27:02;17.50;99.90
7030;DHT22;3556;53.500;10.176;2023-10-08T11:29:52;17.70;99.90
7030;DHT22;3556;53.500;10.176;2023-10-08T11:32:27;18.00;99.90
7030;DHT22;3556;53.500;10.176;2023-10-08T11:34:56;18.20;99.90
7030;DHT22;3556;53.500;10.176;2023-10-08T11:37:32;18.30;99.90
7030;DHT22;3556;53.500;10.176;2023-10-08T11:40:01;18.40;99.90
7030;DHT22;3556;53.500;10.176;2023-10-08T11:42:38;18.30;99.90
7030;DHT22;3556;53.500;10.176;2023-10-08T11:45:04;18.10;99.90
7030;DHT22;3556;53.500;10.176;2023-10-08T11:47:49;18.00;99.90
7030;DHT22;3556;53.500;10.176;2023-10-08T11:50:15;17.80;93.70
7030;DHT22;3556;53.500;10.176;2023-10-08T11:52:46;17.80;99.90
7030;DHT22;3556;53.500;10.176;2023-10-08T11:55:12;17.70;99.90
7030;DHT22;3556;53.500;10.176;2023-10-08T11:57:47;17.60;95.50
7030;DHT22;3556;53.500;10.176;2023-10-08T12:00:15;17.60;93.90
7030;DHT22;3556;53.500;10.176;2023-10-08T12:03:01;17.50;89.30
7030;DHT22;3556;53.500;10.176;2023-10-08T12:05:27;17.60;96.80
7030;DHT22;3556;53.500;10.176;2023-10-08T12:07:54;17.70;94.90
7030;DHT22;3556;53.500;10.176;2023-10-08T12:10:23;17.90;96.20
7030;DHT22;3556;53.500;10.176;2023-10-08T12:12:50;18.20;96.30
7030;DHT22;3556;53.500;10.176;2023-10-08T12:15:21;18.30;92.60
7030;DHT22;3556;53.500;10.176;2023-10-08T12:17:48;18.60;95.40
7030;DHT22;3556;53.500;10.176;2023-10-08T12:20:34;18.80;92.30
7030;DHT22;3556;53.500;10.176;2023-10-08T12:23:00;19.00;89.00
7030;DHT22;3556;53.500;10.176;2023-10-08T12:25:26;19.20;91.50
7030;DHT22;3556;53.500;10.176;2023-10-08T12:27:51;19.30;85.80
7030;DHT22;3556;53.500;10.176;2023-10-08T12:30:17;19.30;83.50
7030;DHT22;3556;53.500;10.176;2023-10-08T12:32:43;19.20;82.60
7030;DHT22;3556;53.500;10.176;2023-10-08T12:35:11;19.00;92.50
7030;DHT22;3556;53.500;10.176;2023-10-08T12:37:40;18.70;86.70
7030;DHT22;3556;53.500;10.176;2023-10-08T12:40:07;18.40;90.10
7030;DHT22;3556;53.500;10.176;2023-10-08T12:42:51;18.10;91.50
7030;DHT22;3556;53.500;10.176;2023-10-08T12:45:17;17.80;90.90
7030;DHT22;3556;53.500;10.176;2023-10-08T12:47:49;17.50;91.10
7030;DHT22;3556;53.500;10.176;2023-10-08T12:50:19;17.30;93.90
7030;DHT22;3556;53.500;10.176;2023-10-08T12:52:55;17.00;89.50
7030;DHT22;3556;53.500;10.176;2023-10-08T12:55:23;16.70;90.40
7030;DHT22;3556;53.500;10.176;2023-10-08T12:57:53;16.60;95.00
7030;DHT22;3556;53.500;10.176;2023-10-08T13:00:24;16.50;95.70
7030;DHT22;3556;53.500;10.176;2023-10-08T13:02:54;16.50;99.90
7030;DHT22;3556;53.500;10.176;2023-10-08T13:05:23;16.50;99.90
7030;DHT22;3556;53.500;10.176;2023-10-08T13:07:57;16.50;99.40
7030;DHT22;3556;53.500;10.176;2023-10-08T13:10:29;16.40;94.80
7030;DHT22;3556;53.500;10.176;2023-10-08T13:12:56;16.40;96.20
7030;DHT22;3556;53.500;10.176;2023-10-08T13:15:23;16.30;95.30
7030;DHT22;3556;53.500;10.176;2023-10-08T13:17:52;16.20;95.60
7030;DHT22;3556;53.500;10.176;2023-10-08T13:20:17;16.10;97.60
7030;DHT22;3556;53.500;10.176;2023-10-08T13:22:43;16.10;96.90
7030;DHT22;3556;53.500;10.176;2023-10-08T13:25:10;15.90;96.10
7030;DHT22;3556;53.500;10.176;2023-10-08T13:27:37;15.80;97.30
7030;DHT22;3556;53.500;10.176;2023-10-08T13:30:07;15.70;99.20
7030;DHT22;3556;53.500;10.176;2023-10-08T13:32:36;15.70;99.10
7030;DHT22;3556;53.500;10.176;2023-10-08T13:35:05;15.60;98.40
7030;DHT22;3556;53.500;10.176;2023-10-08T13:37:36;15.50;98.30
7030;DHT22;3556;53.500;10.176;2023-10-08T13:40:03;15.50;99.90
7030;DHT22;3556;53.500;10.176;2023-10-08T13:42:28;15.40;99.90
7030;DHT22;3556;53.500;10.176;2023-10-08T13:44:55;15.30;99.90
7030;DHT22;3556;53.500;10.176;2023-10-08T13:47:23;15.30;99.90
7030;DHT22;3556;53.500;10.176;2023-10-08T13:49:54;15.20;99.90
7030;DHT22;3556;53.500;10.176;2023-10-08T13:52:20;15.20;99.90
7030;DHT22;3556;53.500;10.176;2023-10-08T13:54:46;15.20;99.90
7030;DHT22;3556;53.500;10.176;2023-10-08T13:57:19;15.10;99.90
7030;DHT22;3556;53.500;10.176;2023-10-08T13:59:45;15.10;99.90
7030;DHT22;3556;53.500;10.176;2023-10-08T14:02:12;15.10;99.90
7030;DHT22;3556;53.500;10.176;2023-10-08T14:04:42;15.10;99.90
7030;DHT22;3556;53.500;10.176;2023-10-08T14:07:10;15.10;99.90
7030;DHT22;3556;53.500;10.176;2023-10-08T14:09:38;15.10;99.90
7030;DHT22;3556;53.500;10.176;2023-10-08T14:12:07;15.00;99.90
7030;DHT22;3556;53.500;10.176;2023-10-08T14:14:33;15.00;99.90
7030;DHT22;3556;53.500;10.176;2023-10-08T14:17:01;15.00;99.90
7030;DHT22;3556;53.500;10.176;2023-10-08T14:19:32;15.00;99.90
7030;DHT22;3556;53.500;10.176;2023-10-08T14:22:23;15.00;99.90
7030;DHT22;3556;53.500;10.176;2023-10-08T14:24:50;15.00;99.90
7030;DHT22;3556;53.500;10.176;2023-10-08T14:27:25;14.90;99.90
7030;DHT22;3556;53.500;10.176;2023-10-08T14:29:59;14.90;99.90
7030;DHT22;3556;53.500;10.176;2023-10-08T14:32:29;14.90;99.90
7030;DHT22;3556;53.500;10.176;2023-10-08T14:34:57;14.80;99.90
7030;DHT22;3556;53.500;10.176;2023-10-08T14:37:23;14.80;99.90
7030;DHT22;3556;53.500;10.176;2023-10-08T14:40:07;14.70;99.90
7030;DHT22;3556;53.500;10.176;2023-10-08T14:42:52;14.70;99.90
7030;DHT22;3556;53.500;10.176;2023-10-08T14:45:25;14.70;99.90
7030;DHT22;3556;53.500;10.176;2023-10-08T14:47:55;14.70;99.90
7030;DHT22;3556;53.500;10.176;2023-10-08T14:50:25;14.60;99.90
7030;DHT22;3556;53.500;10.176;2023-10-08T14:52:56;14.60;99.90
7030;DHT22;3556;53.500;10.176;2023-10-08T14:55:23;14.50;99.90
7030;DHT22;3556;53.500;10.176;2023-10-08T14:57:49;14.50;99.90
7030;DHT22;3556;53.500;10.176;2023-10-08T15:00:21;14.40;99.90
7030;DHT22;3556;53.500;10.176;2023-10-08T15:02:51;14.40;99.90
7030;DHT22;3556;53.500;10.176;2023-10-08T15:05:20;14.40;99.90
7030;DHT22;3556;53.500;10.176;2023-10-08T15:07:48;14.30;99.90
7030;DHT22;3556;53.500;10.176;2023-10-08T15:10:14;14.30;99.90
7030;DHT22;3556;53.500;10.176;2023-10-08T15:12:40;14.30;99.90
7030;DHT22;3556;53.500;10.176;2023-10-08T15:15:06;14.20;99.90
7030;DHT22;3556;53.500;10.176;2023-10-08T15:17:42;14.20;99.90
7030;DHT22;3556;53.500;10.176;2023-10-08T15:20:13;14.20;99.90
7030;DHT22;3556;53.500;10.176;2023-10-08T15:22:45;14.20;99.90
7030;DHT22;3556;53.500;10.176;2023-10-08T15:25:12;14.10;99.90
7030;DHT22;3556;53.500;10.176;2023-10-08T15:27:39;14.10;99.90
7030;DHT22;3556;53.500;10.176;2023-10-08T15:30:09;14.00;99.90
7030;DHT22;3556;53.500;10.176;2023-10-08T15:32:42;14.00;99.90
7030;DHT22;3556;53.500;10.176;2023-10-08T15:35:12;14.00;99.90
7030;DHT22;3556;53.500;10.176;2023-10-08T15:37:40;13.90;99.90
7030;DHT22;3556;53.500;10.176;2023-10-08T15:40:07;13.90;99.90
7030;DHT22;3556;53.500;10.176;2023-10-08T15:42:36;13.90;99.90
7030;DHT22;3556;53.500;10.176;2023-10-08T15:45:05;13.80;99.90
7030;DHT22;3556;53.500;10.176;2023-10-08T15:47:31;13.80;99.90
7030;DHT22;3556;53.500;10.176;2023-10-08T15:49:57;13.80;99.90
7030;DHT22;3556;53.500;10.176;2023-10-08T15:52:27;13.70;99.90
7030;DHT22;3556;53.500;10.176;2023-10-08T15:54:53;13.70;99.90
7030;DHT22;3556;53.500;10.176;2023-10-08T15:57:18;13.60;99.90
7030;DHT22;3556;53.500;10.176;2023-10-08T15:59:44;13.60;99.90
7030;DHT22;3556;53.500;10.176;2023-10-08T16:02:10;13.60;99.90
7030;DHT22;3556;53.500;10.176;2023-10-08T16:04:35;13.60;99.90
7030;DHT22;3556;53.500;10.176;2023-10-08T16:07:01;13.50;99.90
7030;DHT22;3556;53.500;10.176;2023-10-08T16:09:27;13.40;99.90
7030;DHT22;3556;53.500;10.176;2023-10-08T16:11:53;13.40;99.90
7030;DHT22;3556;53.500;10.176;2023-10-08T16:14:19;13.40;99.90